createdAt,value
2018-06-15T00:00:52.487Z,15.90
2018-06-15T00:03:23.147Z,15.90
2018-06-15T00:05:53.840Z,15.90
2018-06-15T00:08:24.523Z,15.90
2018-06-15T00:10:55.203Z,15.90
2018-06-15T00:13:25.888Z,15.90
2018-06-15T00:15:56.531Z,15.90
2018-06-15T00:18:27.235Z,15.90
2018-06-15T00:20:57.895Z,15.90
2018-06-15T00:23:28.891Z,15.90
2018-06-15T00:25:59.555Z,15.90
2018-06-15T00:28:30.239Z,15.80
2018-06-15T00:31:00.899Z,15.80
2018-06-15T00:33:31.603Z,15.80
2018-06-15T00:36:02.287Z,15.80
2018-06-15T00:38:32.992Z,15.80
2018-06-15T00:41:03.683Z,15.80
2018-06-15T00:43:34.335Z,15.70
2018-06-15T00:46:05.061Z,15.80
2018-06-15T00:48:35.716Z,15.80
2018-06-15T00:51:06.416Z,15.80
2018-06-15T00:53:37.063Z,15.70
2018-06-15T00:56:07.919Z,15.70
2018-06-15T00:58:38.579Z,15.70
2018-06-15T01:01:09.259Z,15.70
2018-06-15T01:03:39.935Z,15.70
2018-06-15T01:06:10.699Z,15.70
2018-06-15T01:08:41.396Z,15.70
2018-06-15T01:11:12.076Z,15.70
2018-06-15T01:13:42.945Z,15.70
2018-06-15T01:16:13.627Z,15.70
2018-06-15T01:18:44.283Z,15.70
2018-06-15T01:21:15.000Z,15.70
2018-06-15T01:23:45.659Z,15.70
2018-06-15T01:26:16.356Z,15.70
2018-06-15T01:28:47.067Z,15.70
2018-06-15T01:31:17.761Z,15.70
2018-06-15T01:33:48.444Z,15.70
2018-06-15T01:36:19.139Z,15.70
2018-06-15T01:38:49.801Z,15.60
2018-06-15T01:41:20.575Z,15.70
2018-06-15T01:43:51.226Z,15.60
2018-06-15T01:46:21.924Z,15.70
2018-06-15T01:48:52.579Z,15.60
2018-06-15T01:51:23.275Z,15.70
2018-06-15T01:53:53.927Z,15.70
2018-06-15T01:56:24.955Z,15.70
2018-06-15T01:58:55.620Z,15.70
2018-06-15T02:01:26.436Z,15.70
2018-06-15T02:03:57.197Z,15.70
2018-06-15T02:06:27.887Z,15.60
2018-06-15T02:08:59.111Z,15.60
2018-06-15T02:11:30.243Z,15.60
2018-06-15T02:14:00.899Z,15.70
2018-06-15T02:16:31.635Z,15.60
2018-06-15T02:19:02.427Z,15.60
2018-06-15T02:21:33.092Z,15.60
2018-06-15T02:24:03.795Z,15.60
2018-06-15T02:26:34.495Z,15.60
2018-06-15T02:29:05.573Z,15.60
2018-06-15T02:31:36.432Z,15.60
2018-06-15T02:34:07.281Z,15.60
2018-06-15T02:36:38.002Z,15.60
2018-06-15T02:39:10.141Z,15.60
2018-06-15T02:41:41.219Z,15.60
2018-06-15T02:44:12.091Z,15.60
2018-06-15T02:46:42.790Z,15.50
2018-06-15T02:49:13.472Z,15.50
2018-06-15T02:51:44.383Z,15.50
2018-06-15T02:54:15.079Z,15.50
2018-06-15T02:56:46.116Z,15.50
2018-06-15T02:59:17.066Z,15.50
2018-06-15T03:01:48.408Z,15.50
2018-06-15T03:04:19.107Z,15.50
2018-06-15T03:06:49.780Z,15.50
2018-06-15T03:09:20.479Z,15.50
2018-06-15T03:11:51.177Z,15.50
2018-06-15T03:14:21.883Z,15.50
2018-06-15T03:16:52.557Z,15.50
2018-06-15T03:19:23.262Z,15.50
2018-06-15T03:21:53.934Z,15.50
2018-06-15T03:24:24.628Z,15.50
2018-06-15T03:26:55.324Z,15.50
2018-06-15T03:29:26.004Z,15.50
2018-06-15T03:31:56.703Z,15.50
2018-06-15T03:34:27.359Z,15.50
2018-06-15T03:36:58.051Z,15.50
2018-06-15T03:39:28.719Z,15.50
2018-06-15T03:41:59.431Z,15.50
2018-06-15T03:44:30.096Z,15.50
2018-06-15T03:47:00.787Z,15.50
2018-06-15T03:49:31.455Z,15.50
2018-06-15T03:52:02.156Z,15.50
2018-06-15T03:54:32.816Z,15.50
2018-06-15T03:57:03.568Z,15.50
2018-06-15T03:59:34.267Z,15.50
2018-06-15T04:02:05.327Z,15.50
2018-06-15T04:04:36.019Z,15.50
2018-06-15T04:07:06.752Z,15.50
2018-06-15T04:09:37.695Z,15.50
2018-06-15T04:12:08.428Z,15.50
2018-06-15T04:14:39.091Z,15.50
2018-06-15T04:17:09.791Z,15.50
2018-06-15T04:19:40.445Z,15.50
2018-06-15T04:22:11.133Z,15.50
2018-06-15T04:24:41.784Z,15.50
2018-06-15T04:27:12.471Z,15.50
2018-06-15T04:29:43.144Z,15.50
2018-06-15T04:32:13.859Z,15.50
2018-06-15T04:34:44.579Z,15.50
2018-06-15T04:37:15.318Z,15.60
2018-06-15T04:39:46.165Z,15.50
2018-06-15T04:42:16.880Z,15.60
2018-06-15T04:44:47.589Z,15.60
2018-06-15T04:47:18.277Z,15.60
2018-06-15T04:49:48.967Z,15.60
2018-06-15T04:52:19.683Z,15.70
2018-06-15T04:54:50.344Z,15.70
2018-06-15T04:57:21.039Z,15.70
2018-06-15T04:59:51.778Z,15.70
2018-06-15T05:02:22.484Z,15.80
2018-06-15T05:04:53.151Z,15.80
2018-06-15T05:07:23.843Z,15.90
2018-06-15T05:09:54.871Z,15.90
2018-06-15T05:12:25.567Z,15.90
2018-06-15T05:14:56.333Z,16.00
2018-06-15T05:17:27.004Z,16.00
2018-06-15T05:19:57.804Z,16.10
2018-06-15T05:22:28.638Z,16.10
2018-06-15T05:24:59.332Z,16.10
2018-06-15T05:27:29.991Z,16.20
2018-06-15T05:30:00.683Z,16.30
2018-06-15T05:32:31.351Z,16.40
2018-06-15T05:35:02.043Z,16.50
2018-06-15T05:37:32.711Z,16.50
2018-06-15T05:40:03.443Z,16.50
2018-06-15T05:42:34.162Z,16.50
2018-06-15T05:45:05.247Z,16.60
2018-06-15T05:47:35.907Z,16.60
2018-06-15T05:50:06.935Z,16.70
2018-06-15T05:52:37.635Z,16.80
2018-06-15T05:55:08.323Z,16.90
2018-06-15T05:57:38.984Z,16.90
2018-06-15T06:00:09.726Z,17.00
2018-06-15T06:02:40.386Z,17.00
2018-06-15T06:05:11.093Z,17.00
2018-06-15T06:07:41.793Z,17.00
2018-06-15T06:10:12.504Z,17.00
2018-06-15T06:12:43.171Z,17.10
2018-06-15T06:15:13.891Z,17.10
2018-06-15T06:17:44.555Z,17.10
2018-06-15T06:20:15.248Z,17.10
2018-06-15T06:22:45.947Z,17.10
2018-06-15T06:25:16.651Z,17.10
2018-06-15T06:27:47.339Z,17.10
2018-06-15T06:30:18.072Z,17.10
2018-06-15T06:32:48.759Z,17.10
2018-06-15T06:35:19.623Z,17.10
2018-06-15T06:37:50.287Z,17.10
2018-06-15T06:40:21.203Z,17.10
2018-06-15T06:42:51.863Z,17.10
2018-06-15T06:45:22.567Z,17.10
2018-06-15T06:47:53.263Z,17.10
2018-06-15T06:50:23.939Z,17.20
2018-06-15T06:53:01.164Z,17.10
2018-06-15T06:55:31.839Z,17.10
2018-06-15T06:58:02.563Z,17.10
2018-06-15T07:00:33.231Z,17.10
2018-06-15T07:03:03.967Z,17.10
2018-06-15T07:05:34.703Z,17.10
2018-06-15T07:08:05.745Z,17.10
2018-06-15T07:10:36.448Z,17.30
2018-06-15T07:13:07.128Z,17.40
2018-06-15T07:15:37.832Z,17.60
2018-06-15T07:18:08.499Z,17.80
2018-06-15T07:20:39.204Z,17.80
2018-06-15T07:23:09.873Z,17.80
2018-06-15T07:25:40.572Z,17.80
2018-06-15T07:28:11.235Z,17.80
2018-06-15T07:30:41.936Z,17.80
2018-06-15T07:33:12.647Z,17.80
2018-06-15T07:35:43.695Z,17.80
2018-06-15T07:38:14.427Z,17.80
2018-06-15T07:40:45.097Z,17.80
2018-06-15T07:43:15.808Z,17.80
2018-06-15T07:45:46.509Z,17.80
2018-06-15T07:48:17.196Z,17.80
2018-06-15T07:50:47.887Z,17.80
2018-06-15T07:53:18.599Z,17.80
2018-06-15T07:55:49.263Z,17.80
2018-06-15T07:58:19.965Z,17.80
2018-06-15T08:00:50.668Z,17.80
2018-06-15T08:03:21.357Z,17.80
2018-06-15T08:05:52.055Z,17.80
2018-06-15T08:08:22.801Z,17.80
2018-06-15T08:10:53.502Z,17.80
2018-06-15T08:13:25.027Z,17.90
2018-06-15T08:15:55.767Z,17.90
2018-06-15T08:18:26.623Z,17.90
2018-06-15T08:20:57.303Z,18.00
2018-06-15T08:23:28.803Z,18.10
2018-06-15T08:26:00.155Z,18.30
2018-06-15T08:28:31.461Z,18.30
2018-06-15T08:31:03.066Z,18.30
2018-06-15T08:33:34.423Z,18.40
2018-06-15T08:36:05.116Z,18.50
2018-06-15T08:38:35.799Z,18.50
2018-06-15T08:41:06.677Z,18.60
2018-06-15T08:43:37.335Z,18.70
2018-06-15T08:46:08.015Z,18.90
2018-06-15T08:48:38.721Z,19.00
2018-06-15T08:51:09.368Z,19.10
2018-06-15T08:53:40.055Z,19.20
2018-06-15T08:56:10.703Z,19.30
2018-06-15T08:58:41.391Z,19.40
2018-06-15T09:01:12.090Z,19.40
2018-06-15T09:03:42.767Z,19.40
2018-06-15T09:06:13.443Z,19.40
2018-06-15T09:08:44.147Z,19.40
2018-06-15T09:11:14.836Z,19.40
2018-06-15T09:13:45.671Z,19.40
2018-06-15T09:16:16.351Z,19.50
2018-06-15T09:18:47.023Z,19.70
2018-06-15T09:21:17.724Z,19.90
2018-06-15T09:23:48.484Z,20.10
2018-06-15T09:26:19.144Z,20.30
2018-06-15T09:28:49.832Z,20.30
2018-06-15T09:31:20.495Z,20.40
2018-06-15T09:33:51.183Z,20.40
2018-06-15T09:36:21.843Z,20.50
2018-06-15T09:38:52.582Z,20.60
2018-06-15T09:41:23.400Z,20.50
2018-06-15T09:43:54.347Z,20.50
2018-06-15T09:46:25.114Z,20.40
2018-06-15T09:48:55.927Z,20.40
2018-06-15T09:51:26.607Z,20.50
2018-06-15T09:53:57.281Z,20.60
2018-06-15T09:56:28.159Z,20.70
2018-06-15T09:58:58.607Z,20.80
2018-06-15T10:01:29.019Z,20.90
2018-06-15T10:03:59.687Z,20.80
2018-06-15T10:06:30.408Z,20.80
2018-06-15T10:09:01.264Z,20.70
2018-06-15T10:11:31.947Z,20.60
2018-06-15T10:14:02.632Z,20.60
2018-06-15T10:16:33.303Z,20.50
2018-06-15T10:19:03.955Z,20.40
2018-06-15T10:21:34.659Z,20.50
2018-06-15T10:24:05.368Z,20.60
2018-06-15T10:26:36.055Z,20.70
2018-06-15T10:29:06.426Z,20.80
2018-06-15T10:31:37.032Z,21.00
2018-06-15T10:34:07.651Z,21.10
2018-06-15T10:36:38.132Z,21.10
2018-06-15T10:39:10.772Z,21.10
2018-06-15T10:41:41.419Z,21.10
2018-06-15T10:44:11.960Z,21.20
2018-06-15T10:46:42.319Z,21.30
2018-06-15T10:49:12.719Z,21.30
2018-06-15T10:51:43.133Z,21.30
2018-06-15T10:54:13.524Z,21.30
2018-06-15T10:56:43.884Z,21.20
2018-06-15T10:59:14.305Z,21.20
2018-06-15T11:01:44.671Z,21.20
2018-06-15T11:04:15.043Z,21.20
2018-06-15T11:06:45.448Z,21.20
2018-06-15T11:09:15.799Z,21.20
2018-06-15T11:11:46.174Z,21.20
2018-06-15T11:14:16.597Z,21.20
2018-06-15T11:16:47.199Z,21.20
2018-06-15T11:19:17.590Z,21.20
2018-06-15T11:21:47.978Z,21.20
2018-06-15T11:24:18.363Z,21.30
2018-06-15T11:26:48.715Z,21.50
2018-06-15T11:29:19.107Z,21.50
2018-06-15T11:31:49.483Z,21.60
2018-06-15T11:34:19.827Z,21.60
2018-06-15T11:36:50.355Z,21.70
2018-06-15T11:39:20.707Z,21.70
2018-06-15T11:41:51.075Z,21.70
2018-06-15T11:44:21.423Z,21.60
2018-06-15T11:46:51.819Z,21.60
2018-06-15T11:49:22.273Z,21.50
2018-06-15T11:51:52.694Z,21.50
2018-06-15T11:54:23.207Z,21.50
2018-06-15T11:56:53.586Z,21.40
2018-06-15T11:59:24.015Z,21.40
2018-06-15T12:01:54.422Z,21.30
2018-06-15T12:04:24.983Z,21.30
2018-06-15T12:06:55.387Z,21.20
2018-06-15T12:09:25.750Z,21.20
2018-06-15T12:11:56.134Z,21.20
2018-06-15T12:14:26.493Z,21.20
2018-06-15T12:16:56.886Z,21.20
2018-06-15T12:19:27.246Z,21.20
2018-06-15T12:21:57.635Z,21.20
2018-06-15T12:24:27.996Z,21.20
2018-06-15T12:26:58.379Z,21.20
2018-06-15T12:29:28.733Z,21.20
2018-06-15T12:31:59.115Z,21.20
2018-06-15T12:34:29.455Z,21.30
2018-06-15T12:36:59.832Z,21.40
2018-06-15T12:39:30.187Z,21.50
2018-06-15T12:42:00.563Z,21.60
2018-06-15T12:44:30.942Z,21.70
2018-06-15T12:47:01.308Z,21.90
2018-06-15T12:49:31.683Z,22.00
2018-06-15T12:52:02.039Z,22.30
2018-06-15T12:54:32.411Z,22.50
2018-06-15T12:57:02.808Z,22.70
2018-06-15T12:59:33.367Z,22.80
2018-06-15T13:02:04.073Z,23.00
2018-06-15T13:04:34.479Z,23.10
2018-06-15T13:07:04.891Z,23.30
2018-06-15T13:09:35.275Z,23.40
2018-06-15T13:12:05.846Z,23.60
2018-06-15T13:14:36.223Z,23.60
2018-06-15T13:17:06.600Z,23.70
2018-06-15T13:19:36.972Z,23.70
2018-06-15T13:22:07.331Z,23.70
2018-06-15T13:24:37.699Z,23.70
2018-06-15T13:27:08.068Z,23.80
2018-06-15T13:29:38.446Z,23.80
2018-06-15T13:32:08.810Z,23.90
2018-06-15T13:34:39.186Z,24.00
2018-06-15T13:37:09.531Z,24.10
2018-06-15T13:39:39.994Z,24.30
2018-06-15T13:42:10.470Z,24.30
2018-06-15T13:44:40.874Z,24.30
2018-06-15T13:47:11.219Z,24.10
2018-06-15T13:49:41.596Z,24.10
2018-06-15T13:52:12.097Z,24.10
2018-06-15T13:54:42.652Z,24.20
2018-06-15T13:57:13.029Z,24.30
2018-06-15T13:59:43.407Z,24.40
2018-06-15T14:02:13.795Z,24.50
2018-06-15T14:04:44.191Z,24.50
2018-06-15T14:07:14.567Z,24.50
2018-06-15T14:09:44.934Z,24.40
2018-06-15T14:12:15.287Z,24.30
2018-06-15T14:14:45.662Z,24.30
2018-06-15T14:17:16.047Z,24.30
2018-06-15T14:19:46.441Z,24.30
2018-06-15T14:22:16.841Z,24.20
2018-06-15T14:24:47.362Z,24.30
2018-06-15T14:27:17.743Z,24.30
2018-06-15T14:29:48.087Z,24.30
2018-06-15T14:32:18.467Z,24.30
2018-06-15T14:34:48.891Z,24.40
2018-06-15T14:37:19.231Z,24.40
2018-06-15T14:39:49.582Z,24.40
2018-06-15T14:42:19.993Z,24.50
2018-06-15T14:44:50.371Z,24.50
2018-06-15T14:47:20.748Z,24.50
2018-06-15T14:49:51.098Z,24.50
2018-06-15T14:52:21.485Z,24.60
2018-06-15T14:54:51.873Z,24.50
2018-06-15T14:57:22.451Z,24.50
2018-06-15T14:59:52.806Z,24.40
2018-06-15T15:02:23.182Z,24.30
2018-06-15T15:04:53.573Z,24.10
2018-06-15T15:07:24.164Z,24.00
2018-06-15T15:09:54.546Z,23.90
2018-06-15T15:12:24.895Z,23.80
2018-06-15T15:14:55.266Z,23.70
2018-06-15T15:17:25.615Z,23.70
2018-06-15T15:19:56.008Z,23.80
2018-06-15T15:22:26.381Z,23.90
2018-06-15T15:24:56.750Z,24.00
2018-06-15T15:27:27.131Z,24.10
2018-06-15T15:29:57.565Z,24.10
2018-06-15T15:32:28.090Z,24.20
2018-06-15T15:34:58.488Z,24.30
2018-06-15T15:37:28.845Z,24.30
2018-06-15T15:39:59.239Z,24.30
2018-06-15T15:42:29.586Z,24.30
2018-06-15T15:45:00.011Z,24.30
2018-06-15T15:47:30.579Z,24.20
2018-06-15T15:50:00.956Z,24.20
2018-06-15T15:52:31.514Z,24.10
2018-06-15T15:55:01.996Z,24.10
2018-06-15T15:57:33.063Z,24.10
2018-06-15T16:00:03.508Z,24.00
2018-06-15T16:02:34.063Z,24.00
2018-06-15T16:05:04.466Z,23.90
2018-06-15T16:07:34.855Z,23.80
2018-06-15T16:10:05.282Z,23.80
2018-06-15T16:12:35.626Z,23.80
2018-06-15T16:15:06.015Z,23.80
2018-06-15T16:17:36.364Z,23.70
2018-06-15T16:20:07.123Z,23.70
2018-06-15T16:22:37.711Z,23.70
2018-06-15T16:25:08.055Z,23.70
2018-06-15T16:27:38.435Z,23.70
2018-06-15T16:30:08.787Z,23.70
2018-06-15T16:32:39.215Z,23.70
2018-06-15T16:35:09.595Z,23.70
2018-06-15T16:37:39.947Z,23.70
2018-06-15T16:40:10.351Z,23.70
2018-06-15T16:42:40.718Z,23.70
2018-06-15T16:45:11.103Z,23.60
2018-06-15T16:47:41.463Z,23.60
2018-06-15T16:50:11.847Z,23.50
2018-06-15T16:52:42.190Z,23.50
2018-06-15T16:55:12.567Z,23.40
2018-06-15T16:57:42.915Z,23.30
2018-06-15T17:00:13.314Z,23.30
2018-06-15T17:02:43.675Z,23.30
2018-06-15T17:05:14.059Z,23.20
2018-06-15T17:07:44.434Z,23.20
2018-06-15T17:10:14.826Z,23.10
2018-06-15T17:12:45.394Z,23.10
2018-06-15T17:15:15.776Z,23.10
2018-06-15T17:17:46.147Z,23.00
2018-06-15T17:20:16.539Z,23.00
2018-06-15T17:22:46.900Z,22.90
2018-06-15T17:25:17.275Z,22.80
2018-06-15T17:27:47.622Z,22.70
2018-06-15T17:30:18.011Z,22.70
2018-06-15T17:32:48.359Z,22.60
2018-06-15T17:35:18.764Z,22.50
2018-06-15T17:37:49.315Z,22.40
2018-06-15T17:40:19.667Z,22.40
2018-06-15T17:42:50.246Z,22.40
2018-06-15T17:45:20.603Z,22.30
2018-06-15T17:47:50.982Z,22.30
2018-06-15T17:50:21.927Z,22.30
2018-06-15T17:52:52.403Z,22.30
2018-06-15T17:55:23.035Z,22.30
2018-06-15T17:57:53.392Z,22.30
2018-06-15T18:00:23.867Z,22.30
2018-06-15T18:02:54.248Z,22.30
2018-06-15T18:05:24.964Z,22.30
2018-06-15T18:07:55.546Z,22.20
2018-06-15T18:10:25.891Z,22.20
2018-06-15T18:12:56.630Z,22.20
2018-06-15T18:15:26.983Z,22.10
2018-06-15T18:17:57.463Z,22.10
2018-06-15T18:20:27.831Z,22.10
2018-06-15T18:22:59.375Z,22.00
2018-06-15T18:25:31.711Z,22.00
2018-06-15T18:28:02.335Z,22.00
2018-06-15T18:30:32.866Z,22.00
2018-06-15T18:33:02.095Z,22.00
2018-06-15T18:35:32.634Z,21.90
2018-06-15T18:38:03.019Z,21.90
2018-06-15T18:40:33.413Z,21.80
2018-06-15T18:43:04.115Z,21.80
2018-06-15T18:45:38.759Z,21.70
2018-06-15T18:48:15.054Z,21.60
2018-06-15T18:50:51.206Z,21.60
2018-06-15T18:53:24.811Z,21.50
2018-06-15T18:55:59.152Z,21.40
2018-06-15T19:01:08.055Z,21.30
2018-06-15T19:03:44.212Z,21.30
2018-06-15T19:06:25.196Z,21.20
2018-06-15T19:08:58.195Z,21.20
2018-06-15T19:11:32.301Z,21.20
2018-06-15T19:14:06.932Z,21.10
2018-06-15T19:16:39.909Z,21.10
2018-06-15T19:19:15.155Z,21.00
2018-06-15T19:21:54.691Z,21.00
2018-06-15T19:24:27.873Z,20.90
2018-06-15T19:27:07.279Z,20.90
2018-06-15T19:29:40.803Z,20.90
2018-06-15T19:32:19.488Z,20.80
2018-06-15T19:37:54.706Z,20.90
2018-06-15T19:40:25.121Z,20.80
2018-06-15T19:42:55.498Z,20.80
2018-06-15T19:45:25.915Z,20.80
2018-06-15T19:47:56.322Z,20.70
2018-06-15T19:50:26.721Z,20.70
2018-06-15T19:52:57.050Z,20.60
2018-06-15T19:55:27.430Z,20.60
2018-06-15T19:57:59.708Z,20.50
2018-06-15T20:00:30.102Z,20.50
2018-06-15T20:03:00.442Z,20.40
2018-06-15T20:05:30.814Z,20.40
2018-06-15T20:08:01.229Z,20.40
2018-06-15T20:10:31.747Z,20.30
2018-06-15T20:13:02.078Z,20.30
2018-06-15T20:15:32.650Z,20.20
2018-06-15T20:18:02.990Z,20.20
2018-06-15T20:20:33.354Z,20.30
2018-06-15T20:23:03.682Z,20.30
2018-06-15T20:25:34.046Z,20.30
2018-06-15T20:28:04.954Z,20.20
2018-06-15T20:30:35.323Z,20.20
2018-06-15T20:33:05.974Z,20.20
2018-06-15T20:35:36.339Z,20.20
2018-06-15T20:38:06.750Z,20.20
2018-06-15T20:40:37.086Z,20.10
2018-06-15T20:43:07.455Z,20.10
2018-06-15T20:45:37.781Z,20.10
2018-06-15T20:48:08.133Z,20.10
2018-06-15T20:50:38.469Z,20.00
2018-06-15T20:53:08.841Z,20.00
2018-06-15T20:58:16.042Z,20.00
2018-06-15T21:00:46.506Z,20.00
2018-06-15T21:03:16.862Z,19.90
2018-06-15T21:05:47.197Z,19.90
2018-06-15T21:08:17.584Z,19.90
2018-06-15T21:10:47.910Z,19.90
2018-06-15T21:13:18.258Z,19.90
2018-06-15T21:15:48.854Z,19.80
2018-06-15T21:18:19.258Z,19.80
2018-06-15T21:20:56.465Z,19.80
2018-06-15T21:23:26.819Z,19.70
2018-06-15T21:25:57.182Z,19.70
2018-06-15T21:28:27.742Z,19.70
2018-06-15T21:30:58.105Z,19.60
2018-06-15T21:33:28.446Z,19.50
2018-06-15T21:35:58.802Z,19.50
2018-06-15T21:38:29.137Z,19.50
2018-06-15T21:40:59.497Z,19.50
2018-06-15T21:43:29.858Z,19.40
2018-06-15T21:46:00.498Z,19.30
2018-06-15T21:48:30.858Z,19.30
2018-06-15T21:51:01.225Z,19.20
2018-06-15T21:53:31.542Z,19.20
2018-06-15T21:56:02.179Z,19.10
2018-06-15T21:58:32.794Z,19.10
2018-06-15T22:01:03.150Z,19.00
2018-06-15T22:03:33.782Z,18.90
2018-06-15T22:06:04.490Z,18.90
2018-06-15T22:08:34.906Z,18.90
2018-06-15T22:11:05.378Z,18.80
2018-06-15T22:13:36.118Z,18.80
2018-06-15T22:16:06.730Z,18.70
2018-06-15T22:18:37.394Z,18.70
2018-06-15T22:21:08.009Z,18.70
2018-06-15T22:23:38.806Z,18.60
2018-06-15T22:26:09.171Z,18.60
2018-06-15T22:28:39.814Z,18.60
2018-06-15T22:31:10.462Z,18.60
2018-06-15T22:33:41.103Z,18.50
2018-06-15T22:36:11.706Z,18.50
2018-06-15T22:38:42.365Z,18.50
2018-06-15T22:41:13.106Z,18.40
2018-06-15T22:43:43.734Z,18.40
2018-06-15T22:46:14.346Z,18.40
2018-06-15T22:48:44.986Z,18.30
2018-06-15T22:51:15.698Z,18.30
2018-06-15T22:53:46.318Z,18.30
2018-06-15T22:56:16.954Z,18.20
2018-06-15T22:58:47.594Z,18.20
2018-06-15T23:01:18.394Z,18.20
2018-06-15T23:03:49.050Z,18.20
2018-06-15T23:06:19.734Z,18.20
2018-06-15T23:08:50.419Z,18.20
2018-06-15T23:11:21.066Z,18.10
2018-06-15T23:13:51.922Z,18.10
2018-06-15T23:16:22.581Z,18.10
2018-06-15T23:18:53.222Z,18.10
2018-06-15T23:21:23.872Z,18.10
2018-06-15T23:23:54.537Z,18.10
2018-06-15T23:26:25.194Z,18.10
2018-06-15T23:28:55.818Z,18.10
2018-06-15T23:31:26.456Z,18.10
2018-06-15T23:33:57.122Z,18.00
2018-06-15T23:36:27.742Z,18.00
2018-06-15T23:38:58.397Z,18.00
2018-06-15T23:41:29.014Z,18.00
2018-06-15T23:43:59.663Z,17.90
2018-06-15T23:46:30.278Z,17.90
2018-06-15T23:49:00.928Z,17.90
2018-06-15T23:51:31.546Z,17.90
2018-06-15T23:54:02.326Z,17.80
2018-06-15T23:56:32.970Z,17.80
2018-06-15T23:59:03.653Z,17.80
